createdAt,value
2023-05-12T00:02:24.521Z,0.40
2023-05-12T00:04:52.137Z,0.40
2023-05-12T00:07:19.685Z,0.30
2023-05-12T00:09:48.430Z,0.30
2023-05-12T00:12:15.968Z,0.30
2023-05-12T00:14:43.388Z,0.30
2023-05-12T00:17:10.816Z,0.30
2023-05-12T00:19:38.225Z,0.40
2023-05-12T00:22:06.190Z,0.50
2023-05-12T00:24:34.645Z,0.40
2023-05-12T00:27:03.466Z,0.35
2023-05-12T00:29:30.885Z,0.40
2023-05-12T00:31:58.334Z,0.40
2023-05-12T00:34:25.876Z,0.38
2023-05-12T00:36:53.324Z,0.43
2023-05-12T00:39:20.713Z,0.40
2023-05-12T00:41:50.053Z,0.40
2023-05-12T00:44:18.870Z,0.40
2023-05-12T00:46:46.494Z,0.52
2023-05-12T00:49:14.017Z,0.50
2023-05-12T00:51:41.453Z,0.40
2023-05-12T00:54:09.277Z,0.40
2023-05-12T00:56:39.203Z,0.30
2023-05-12T00:59:08.951Z,0.40
2023-05-12T01:01:41.459Z,0.30
2023-05-12T01:04:09.272Z,0.40
2023-05-12T01:06:39.120Z,0.30
2023-05-12T01:09:08.556Z,0.40
2023-05-12T01:11:36.429Z,0.40
2023-05-12T01:14:04.680Z,0.32
2023-05-12T01:16:35.484Z,0.50
2023-05-12T01:19:06.578Z,0.32
2023-05-12T01:21:35.800Z,0.30
2023-05-12T01:24:06.677Z,0.30
2023-05-12T01:26:35.894Z,0.30
2023-05-12T01:29:03.670Z,0.30
2023-05-12T01:31:31.871Z,0.30
2023-05-12T01:33:59.493Z,0.30
2023-05-12T01:36:27.343Z,0.30
2023-05-12T01:38:55.488Z,0.30
2023-05-12T01:41:22.910Z,0.38
2023-05-12T01:43:51.940Z,0.30
2023-05-12T01:46:19.469Z,0.30
2023-05-12T01:48:47.415Z,0.30
2023-05-12T01:51:14.872Z,0.32
2023-05-12T01:53:42.348Z,0.40
2023-05-12T01:56:10.175Z,0.40
2023-05-12T01:58:38.089Z,0.30
2023-05-12T02:01:06.988Z,0.40
2023-05-12T02:03:34.662Z,0.40
2023-05-12T02:06:02.288Z,0.40
2023-05-12T02:08:29.974Z,0.30
2023-05-12T02:11:05.050Z,0.32
2023-05-12T02:13:32.907Z,0.50
2023-05-12T02:16:00.710Z,0.40
2023-05-12T02:18:29.734Z,0.40
2023-05-12T02:20:57.210Z,0.30
2023-05-12T02:23:24.783Z,0.30
2023-05-12T02:25:52.632Z,0.30
2023-05-12T02:28:20.258Z,0.40
2023-05-12T02:30:50.020Z,0.30
2023-05-12T02:33:17.970Z,0.40
2023-05-12T02:35:46.798Z,0.40
2023-05-12T02:38:14.309Z,0.30
2023-05-12T02:40:41.961Z,0.50
2023-05-12T02:43:09.368Z,0.40
2023-05-12T02:45:36.990Z,0.40
2023-05-12T02:48:04.672Z,0.50
2023-05-12T02:50:32.191Z,0.40
2023-05-12T02:53:01.173Z,0.38
2023-05-12T02:55:30.060Z,0.30
2023-05-12T02:57:57.564Z,0.40
2023-05-12T03:00:25.085Z,0.30
2023-05-12T03:02:52.825Z,0.30
2023-05-12T03:05:20.738Z,0.30
2023-05-12T03:07:49.269Z,0.30
2023-05-12T03:10:18.753Z,0.40
2023-05-12T03:12:46.431Z,0.30
2023-05-12T03:15:14.039Z,0.40
2023-05-12T03:17:41.656Z,0.30
2023-05-12T03:20:09.404Z,0.30
2023-05-12T03:22:37.839Z,0.38
2023-05-12T03:25:05.659Z,0.38
2023-05-12T03:27:34.531Z,0.35
2023-05-12T03:30:02.074Z,0.40
2023-05-12T03:32:30.832Z,0.40
2023-05-12T03:34:58.253Z,0.30
2023-05-12T03:37:26.109Z,0.30
2023-05-12T03:39:55.938Z,0.30
2023-05-12T03:42:24.392Z,0.40
2023-05-12T03:44:53.219Z,0.30
2023-05-12T03:47:21.209Z,0.30
2023-05-12T03:49:49.041Z,0.35
2023-05-12T03:52:16.638Z,0.32
2023-05-12T03:54:45.705Z,0.32
2023-05-12T03:57:14.700Z,0.30
2023-05-12T03:59:42.387Z,0.40
2023-05-12T04:02:12.977Z,0.32
2023-05-12T04:04:40.627Z,0.30
2023-05-12T04:07:08.042Z,0.30
2023-05-12T04:09:35.490Z,0.50
2023-05-12T04:12:02.973Z,0.30
2023-05-12T04:14:41.639Z,0.32
2023-05-12T04:17:11.781Z,0.30
2023-05-12T04:19:39.271Z,0.38
2023-05-12T04:22:06.862Z,0.30
2023-05-12T04:24:34.305Z,0.40
2023-05-12T04:27:01.996Z,0.30
2023-05-12T04:29:29.566Z,0.40
2023-05-12T04:31:57.197Z,0.40
2023-05-12T04:34:26.079Z,0.30
2023-05-12T04:36:53.912Z,0.32
2023-05-12T04:39:21.377Z,0.40
2023-05-12T04:41:49.180Z,0.40
2023-05-12T04:44:16.739Z,0.40
2023-05-12T04:46:44.570Z,0.47
2023-05-12T04:49:12.072Z,0.30
2023-05-12T04:51:42.846Z,0.43
2023-05-12T04:54:10.663Z,0.40
2023-05-12T04:56:38.655Z,0.43
2023-05-12T04:59:07.521Z,0.40
2023-05-12T05:01:35.062Z,0.40
2023-05-12T05:04:02.770Z,0.30
2023-05-12T05:06:31.626Z,0.30
2023-05-12T05:09:01.668Z,0.40
2023-05-12T05:11:29.935Z,0.30
2023-05-12T05:13:57.389Z,0.30
2023-05-12T05:16:25.207Z,0.30
2023-05-12T05:18:53.245Z,0.30
2023-05-12T05:21:20.907Z,0.40
2023-05-12T05:23:48.412Z,0.40
2023-05-12T05:26:17.814Z,0.30
2023-05-12T05:28:45.237Z,0.30
2023-05-12T05:31:16.027Z,0.30
2023-05-12T05:33:43.653Z,0.30
2023-05-12T05:36:11.335Z,0.30
2023-05-12T05:38:38.932Z,0.30
2023-05-12T05:41:06.521Z,0.30
2023-05-12T05:43:35.509Z,0.25
2023-05-12T05:46:03.273Z,0.30
2023-05-12T05:48:30.718Z,0.20
2023-05-12T05:50:58.184Z,0.30
2023-05-12T05:53:26.210Z,0.30
2023-05-12T05:55:53.884Z,0.32
2023-05-12T05:58:21.310Z,0.30
2023-05-12T06:00:50.625Z,0.30
2023-05-12T06:03:19.117Z,0.30
2023-05-12T06:05:46.713Z,0.30
2023-05-12T06:08:14.225Z,0.30
2023-05-12T06:10:41.943Z,0.30
2023-05-12T06:13:09.439Z,0.30
2023-05-12T06:15:36.934Z,0.20
2023-05-12T06:18:05.870Z,0.30
2023-05-12T06:20:33.425Z,0.30
2023-05-12T06:23:02.400Z,0.30
2023-05-12T06:25:29.854Z,0.30
2023-05-12T06:27:57.272Z,0.30
2023-05-12T06:30:24.690Z,0.20
2023-05-12T06:32:55.863Z,0.20
2023-05-12T06:35:24.707Z,0.30
2023-05-12T06:37:52.185Z,0.20
2023-05-12T06:40:19.625Z,0.20
2023-05-12T06:42:47.588Z,0.30
2023-05-12T06:45:20.877Z,0.20
2023-05-12T06:47:48.733Z,0.20
2023-05-12T06:50:16.926Z,0.20
2023-05-12T06:52:45.798Z,0.20
2023-05-12T06:55:13.286Z,0.20
2023-05-12T06:57:41.406Z,0.20
2023-05-12T07:00:10.614Z,0.20
2023-05-12T07:02:38.144Z,0.10
2023-05-12T07:05:05.977Z,0.20
2023-05-12T07:07:33.369Z,0.17
2023-05-12T07:10:03.096Z,0.20
2023-05-12T07:12:32.093Z,0.20
2023-05-12T07:14:59.503Z,0.20
2023-05-12T07:17:28.739Z,0.20
2023-05-12T07:19:56.201Z,0.20
2023-05-12T07:22:24.090Z,0.20
2023-05-12T07:24:51.578Z,0.17
2023-05-12T07:27:20.362Z,0.20
2023-05-12T07:29:47.765Z,0.20
2023-05-12T07:32:15.254Z,0.20
2023-05-12T07:34:42.732Z,0.20
2023-05-12T07:37:10.158Z,0.20
2023-05-12T07:39:38.458Z,0.20
2023-05-12T07:42:06.370Z,0.10
2023-05-12T07:44:36.207Z,0.17
2023-05-12T07:47:03.740Z,0.20
2023-05-12T07:49:31.146Z,0.20
2023-05-12T07:51:58.576Z,0.20
2023-05-12T07:54:26.100Z,0.20
2023-05-12T07:56:53.520Z,0.20
2023-05-12T07:59:20.981Z,0.20
2023-05-12T08:01:50.159Z,0.20
2023-05-12T08:04:17.671Z,0.20
2023-05-12T08:06:45.155Z,0.20
2023-05-12T08:09:12.618Z,0.17
2023-05-12T08:11:40.085Z,0.20
2023-05-12T08:14:07.514Z,0.20
2023-05-12T08:16:34.972Z,0.20
2023-05-12T08:19:03.893Z,0.20
2023-05-12T08:21:31.663Z,0.10
2023-05-12T08:23:59.066Z,0.17
2023-05-12T08:26:26.953Z,0.20
2023-05-12T08:28:54.358Z,0.20
2023-05-12T08:31:22.063Z,0.20
2023-05-12T08:33:51.959Z,0.20
2023-05-12T08:36:28.411Z,0.20
2023-05-12T08:38:56.562Z,0.10
2023-05-12T08:41:26.236Z,0.20
2023-05-12T08:43:53.790Z,0.10
2023-05-12T08:46:22.002Z,0.20
2023-05-12T08:48:51.148Z,0.10
2023-05-12T08:51:19.166Z,0.20
2023-05-12T08:53:48.731Z,0.20
2023-05-12T08:58:48.314Z,0.20
2023-05-12T09:01:17.438Z,0.10
2023-05-12T09:03:45.273Z,0.20
2023-05-12T09:06:13.072Z,0.20
2023-05-12T09:08:41.521Z,0.20
2023-05-12T09:11:11.890Z,0.20
2023-05-12T09:13:46.144Z,0.20
2023-05-12T09:16:14.076Z,0.20
2023-05-12T09:18:46.522Z,0.30
2023-05-12T09:21:14.772Z,0.20
2023-05-12T09:23:52.555Z,0.20
2023-05-12T09:26:22.682Z,0.20
2023-05-12T09:28:50.325Z,0.20
2023-05-12T09:31:18.394Z,0.20
2023-05-12T09:33:45.860Z,0.20
2023-05-12T09:36:14.539Z,0.20
2023-05-12T09:38:41.965Z,0.20
2023-05-12T09:41:09.387Z,0.20
2023-05-12T09:43:38.443Z,0.20
2023-05-12T09:46:06.665Z,0.15
2023-05-12T09:48:34.212Z,0.20
2023-05-12T09:51:01.711Z,0.20
2023-05-12T09:53:29.139Z,0.10
2023-05-12T09:55:56.970Z,0.22
2023-05-12T09:58:25.410Z,0.20
2023-05-12T10:03:27.277Z,0.10
2023-05-12T10:05:58.116Z,0.20
2023-05-12T10:08:26.606Z,0.20
2023-05-12T10:10:54.876Z,0.20
2023-05-12T10:13:23.147Z,0.10
2023-05-12T10:15:50.826Z,0.10
2023-05-12T10:18:19.837Z,0.20
2023-05-12T10:20:48.114Z,0.10
2023-05-12T10:23:16.566Z,0.17
2023-05-12T10:25:44.301Z,0.20
2023-05-12T10:28:12.626Z,0.20
2023-05-12T10:30:41.020Z,0.20
2023-05-12T10:33:11.362Z,0.20
2023-05-12T10:35:40.567Z,0.20
2023-05-12T10:38:08.549Z,0.10
2023-05-12T10:40:36.048Z,0.10
2023-05-12T10:43:03.581Z,0.10
2023-05-12T10:45:36.553Z,0.10
2023-05-12T10:48:08.288Z,0.20
2023-05-12T10:50:35.915Z,0.20
2023-05-12T10:53:04.677Z,0.20
2023-05-12T10:55:32.959Z,0.20
2023-05-12T10:58:08.615Z,0.20
2023-05-12T11:00:45.248Z,0.20
2023-05-12T11:03:14.803Z,0.20
2023-05-12T11:05:44.181Z,0.20
2023-05-12T11:08:14.276Z,0.20
2023-05-12T11:10:42.476Z,0.20
2023-05-12T11:13:10.339Z,0.20
2023-05-12T11:15:38.448Z,0.20
2023-05-12T11:18:06.296Z,0.20
2023-05-12T11:20:33.856Z,0.25
2023-05-12T11:23:01.508Z,0.20
2023-05-12T11:25:30.360Z,0.20
2023-05-12T11:27:58.243Z,0.20
2023-05-12T11:30:25.766Z,0.20
2023-05-12T11:33:00.853Z,0.20
2023-05-12T11:35:30.912Z,0.20
2023-05-12T11:37:58.451Z,0.20
2023-05-12T11:40:25.873Z,0.20
2023-05-12T11:42:56.148Z,0.20
2023-05-12T11:45:24.755Z,0.20
2023-05-12T11:47:52.412Z,0.10
2023-05-12T11:50:23.722Z,0.20
2023-05-12T11:52:51.979Z,0.20
2023-05-12T11:55:24.151Z,0.20
2023-05-12T11:58:03.272Z,0.20
2023-05-12T12:00:32.250Z,0.20
2023-05-12T12:03:10.124Z,0.20
2023-05-12T12:05:38.149Z,0.10
2023-05-12T12:08:06.659Z,0.17
2023-05-12T12:10:34.113Z,0.20
2023-05-12T12:13:03.358Z,0.20
2023-05-12T12:15:30.866Z,0.20
2023-05-12T12:17:58.410Z,0.20
2023-05-12T12:20:25.896Z,0.20
2023-05-12T12:22:53.664Z,0.20
2023-05-12T12:25:21.848Z,0.20
2023-05-12T12:27:50.583Z,0.20
2023-05-12T12:30:19.673Z,0.20
2023-05-12T12:32:47.598Z,0.20
2023-05-12T12:35:15.504Z,0.20
2023-05-12T12:37:42.945Z,0.20
2023-05-12T12:40:11.467Z,0.22
2023-05-12T12:42:40.359Z,0.20
2023-05-12T12:45:09.819Z,0.20
2023-05-12T12:47:38.995Z,0.20
2023-05-12T12:50:07.235Z,0.20
2023-05-12T12:52:34.845Z,0.13
2023-05-12T12:55:04.021Z,0.20
2023-05-12T12:57:31.454Z,0.10
2023-05-12T12:59:58.850Z,0.20
2023-05-12T13:02:26.419Z,0.10
2023-05-12T13:04:55.250Z,0.30
2023-05-12T13:07:22.745Z,0.20
2023-05-12T13:09:50.332Z,0.20
2023-05-12T13:12:17.828Z,0.20
2023-05-12T13:14:45.453Z,0.20
2023-05-12T13:17:12.944Z,0.20
2023-05-12T13:19:40.564Z,0.20
2023-05-12T13:22:09.385Z,0.20
2023-05-12T13:24:36.961Z,0.20
2023-05-12T13:27:08.098Z,0.20
2023-05-12T13:29:35.802Z,0.20
2023-05-12T13:32:03.656Z,0.20
2023-05-12T13:34:31.127Z,0.20
2023-05-12T13:36:59.000Z,0.20
2023-05-12T13:39:27.761Z,0.13
2023-05-12T13:41:55.225Z,0.20
2023-05-12T13:44:22.692Z,0.20
2023-05-12T13:46:50.128Z,0.20
2023-05-12T13:49:19.673Z,0.20
2023-05-12T13:51:47.112Z,0.20
2023-05-12T13:54:15.110Z,0.20
2023-05-12T13:56:43.903Z,0.13
2023-05-12T13:59:11.319Z,0.20
2023-05-12T14:01:39.207Z,0.20
2023-05-12T14:04:06.747Z,0.20
2023-05-12T14:06:34.186Z,0.20
2023-05-12T14:09:01.621Z,0.20
2023-05-12T14:11:29.056Z,0.10
2023-05-12T14:14:00.151Z,0.20
2023-05-12T14:16:28.516Z,0.20
2023-05-12T14:18:56.775Z,0.30
2023-05-12T14:21:24.208Z,0.20
2023-05-12T14:23:51.758Z,0.28
2023-05-12T14:26:19.253Z,0.30
2023-05-12T14:28:46.807Z,0.20
2023-05-12T14:31:15.967Z,0.20
2023-05-12T14:33:43.530Z,0.20
2023-05-12T14:36:11.109Z,0.20
2023-05-12T14:38:38.621Z,0.30
2023-05-12T14:41:08.101Z,0.30
2023-05-12T14:43:35.609Z,0.20
2023-05-12T14:46:03.078Z,0.20
2023-05-12T14:48:31.929Z,0.20
2023-05-12T14:50:59.391Z,0.20
2023-05-12T14:53:26.778Z,0.28
2023-05-12T14:55:54.333Z,0.20
2023-05-12T14:58:23.889Z,0.20
2023-05-12T15:00:51.448Z,0.20
2023-05-12T15:03:20.644Z,0.20
2023-05-12T15:08:21.299Z,0.20
2023-05-12T15:10:48.952Z,0.20
2023-05-12T15:13:19.767Z,0.20
2023-05-12T15:15:47.547Z,0.20
2023-05-12T15:18:15.019Z,0.20
2023-05-12T15:20:42.542Z,0.30
2023-05-12T15:23:11.320Z,0.20
2023-05-12T15:25:39.298Z,0.20
2023-05-12T15:28:06.785Z,0.30
2023-05-12T15:30:35.642Z,0.20
2023-05-12T15:33:04.404Z,0.20
2023-05-12T15:35:32.062Z,0.20
2023-05-12T15:37:59.555Z,0.20
2023-05-12T15:40:30.555Z,0.30
2023-05-12T15:42:58.283Z,0.20
2023-05-12T15:45:25.718Z,0.25
2023-05-12T15:47:53.275Z,0.20
2023-05-12T15:50:22.570Z,0.20
2023-05-12T15:52:50.545Z,0.20
2023-05-12T15:55:18.419Z,0.20
2023-05-12T15:57:47.330Z,0.20
2023-05-12T16:00:15.329Z,0.25
2023-05-12T16:02:42.790Z,0.20
2023-05-12T16:05:10.537Z,0.20
2023-05-12T16:07:38.657Z,0.20
2023-05-12T16:10:06.735Z,0.22
2023-05-12T16:12:34.366Z,0.20
2023-05-12T16:15:04.929Z,0.20
2023-05-12T16:17:32.406Z,0.20
2023-05-12T16:20:00.014Z,0.20
2023-05-12T16:22:27.898Z,0.20
2023-05-12T16:24:56.430Z,0.20
2023-05-12T16:27:23.937Z,0.20
2023-05-12T16:29:53.371Z,0.30
2023-05-12T16:32:22.260Z,0.30
2023-05-12T16:34:49.715Z,0.30
2023-05-12T16:37:17.126Z,0.20
2023-05-12T16:39:44.583Z,0.22
2023-05-12T16:42:12.002Z,0.20
2023-05-12T16:44:39.822Z,0.20
2023-05-12T16:47:07.349Z,0.30
2023-05-12T16:49:36.155Z,0.30
2023-05-12T16:52:03.558Z,0.20
2023-05-12T16:54:31.651Z,0.25
2023-05-12T16:57:01.796Z,0.20
2023-05-12T16:59:29.243Z,0.20
2023-05-12T17:01:56.811Z,0.20
2023-05-12T17:04:24.386Z,0.30
2023-05-12T17:06:53.156Z,0.30
2023-05-12T17:09:21.089Z,0.30
2023-05-12T17:12:15.069Z,0.38
2023-05-12T17:14:44.364Z,0.30
2023-05-12T17:17:13.545Z,0.30
2023-05-12T17:19:41.972Z,0.40
2023-05-12T17:22:11.017Z,0.30
2023-05-12T17:24:38.494Z,0.30
2023-05-12T17:27:06.267Z,0.30
2023-05-12T17:29:33.940Z,0.30
2023-05-12T17:32:02.042Z,0.38
2023-05-12T17:34:29.491Z,0.30
2023-05-12T17:36:57.007Z,0.30
2023-05-12T17:39:25.896Z,0.40
2023-05-12T17:41:53.295Z,0.40
2023-05-12T17:44:20.764Z,0.30
2023-05-12T17:46:48.433Z,0.30
2023-05-12T17:49:15.899Z,0.30
2023-05-12T17:51:44.259Z,0.40
2023-05-12T17:54:11.668Z,0.28
2023-05-12T17:56:40.397Z,0.40
2023-05-12T17:59:07.913Z,0.30
2023-05-12T18:01:35.409Z,0.32
2023-05-12T18:04:02.932Z,0.35
2023-05-12T18:06:30.960Z,0.30
2023-05-12T18:08:58.505Z,0.38
2023-05-12T18:11:25.915Z,0.38
2023-05-12T18:13:54.686Z,0.30
2023-05-12T18:16:28.417Z,0.35
2023-05-12T18:18:56.796Z,0.38
2023-05-12T18:21:24.490Z,0.40
2023-05-12T18:23:51.920Z,0.40
2023-05-12T18:26:19.368Z,0.30
2023-05-12T18:28:46.799Z,0.30
2023-05-12T18:31:16.482Z,0.30
2023-05-12T18:33:46.787Z,0.22
2023-05-12T18:36:14.256Z,0.25
2023-05-12T18:38:41.771Z,0.30
2023-05-12T18:41:09.353Z,0.35
2023-05-12T18:43:36.853Z,0.30
2023-05-12T18:46:04.763Z,0.40
2023-05-12T18:48:33.596Z,0.30
2023-05-12T18:51:01.073Z,0.40
2023-05-12T18:53:28.489Z,0.40
2023-05-12T18:55:55.996Z,0.30
2023-05-12T18:58:23.416Z,0.40
2023-05-12T19:00:50.846Z,0.30
2023-05-12T19:03:18.269Z,0.30
2023-05-12T19:05:48.782Z,0.40
2023-05-12T19:08:17.528Z,0.38
2023-05-12T19:10:45.372Z,0.40
2023-05-12T19:13:13.257Z,0.30
2023-05-12T19:15:40.742Z,0.30
2023-05-12T19:18:09.014Z,0.40
2023-05-12T19:20:37.273Z,0.40
2023-05-12T19:23:06.020Z,0.40
2023-05-12T19:25:33.477Z,0.30
2023-05-12T19:28:00.994Z,0.40
2023-05-12T19:30:29.542Z,0.30
2023-05-12T19:32:57.153Z,0.40
2023-05-12T19:35:25.514Z,0.30
2023-05-12T19:37:52.938Z,0.40
2023-05-12T19:40:21.931Z,0.30
2023-05-12T19:42:50.245Z,0.38
2023-05-12T19:45:17.667Z,0.30
2023-05-12T19:47:45.213Z,0.40
2023-05-12T19:50:12.676Z,0.40
2023-05-12T19:52:40.156Z,0.30
2023-05-12T19:55:09.186Z,0.40
2023-05-12T19:57:38.323Z,0.40
2023-05-12T20:00:06.419Z,0.40
2023-05-12T20:02:40.019Z,0.40
2023-05-12T20:05:07.947Z,0.30
2023-05-12T20:07:35.410Z,0.30
2023-05-12T20:10:03.514Z,0.40
2023-05-12T20:12:30.940Z,0.38
2023-05-12T20:14:59.708Z,0.40
2023-05-12T20:17:27.247Z,0.47
2023-05-12T20:19:54.830Z,0.40
2023-05-12T20:22:22.388Z,0.40
2023-05-12T20:24:50.482Z,0.40
2023-05-12T20:27:17.912Z,0.40
2023-05-12T20:29:45.347Z,0.30
2023-05-12T20:32:14.464Z,0.40
2023-05-12T20:34:42.198Z,0.40
2023-05-12T20:37:09.954Z,0.30
2023-05-12T20:39:37.382Z,0.40
2023-05-12T20:42:05.622Z,0.30
2023-05-12T20:44:33.089Z,0.30
2023-05-12T20:47:00.917Z,0.40
2023-05-12T20:49:29.791Z,0.40
2023-05-12T20:51:57.197Z,0.40
2023-05-12T20:54:24.657Z,0.40
2023-05-12T20:56:52.068Z,0.30
2023-05-12T20:59:19.962Z,0.38
2023-05-12T21:01:47.396Z,0.30
2023-05-12T21:04:14.846Z,0.40
2023-05-12T21:06:43.742Z,0.40
2023-05-12T21:09:11.184Z,0.30
2023-05-12T21:11:38.653Z,0.40
2023-05-12T21:14:06.169Z,0.30
2023-05-12T21:16:33.620Z,0.50
2023-05-12T21:19:01.061Z,0.30
2023-05-12T21:21:28.604Z,0.40
2023-05-12T21:23:57.384Z,0.40
2023-05-12T21:26:24.832Z,0.40
2023-05-12T21:28:52.270Z,0.30
2023-05-12T21:31:19.696Z,0.40
2023-05-12T21:33:47.653Z,0.40
2023-05-12T21:36:15.101Z,0.40
2023-05-12T21:38:42.661Z,0.40
2023-05-12T21:41:11.435Z,0.40
2023-05-12T21:43:38.903Z,0.40
2023-05-12T21:46:06.509Z,0.40
2023-05-12T21:48:34.399Z,0.30
2023-05-12T21:51:02.755Z,0.30
2023-05-12T21:53:30.465Z,0.30
2023-05-12T21:55:57.895Z,0.30
2023-05-12T21:58:28.095Z,0.40
2023-05-12T22:00:55.580Z,0.40
2023-05-12T22:03:25.043Z,0.30
2023-05-12T22:05:52.643Z,0.35
2023-05-12T22:08:20.084Z,0.30
2023-05-12T22:10:47.737Z,0.30
2023-05-12T22:13:15.191Z,0.40
2023-05-12T22:15:44.072Z,0.40
2023-05-12T22:18:11.594Z,0.40
2023-05-12T22:20:39.441Z,0.40
2023-05-12T22:23:06.925Z,0.32
2023-05-12T22:25:34.377Z,0.32
2023-05-12T22:28:01.899Z,0.32
2023-05-12T22:30:29.292Z,0.40
2023-05-12T22:32:58.084Z,0.32
2023-05-12T22:35:25.505Z,0.40
2023-05-12T22:37:53.392Z,0.32
2023-05-12T22:40:22.972Z,0.47
2023-05-12T22:42:50.593Z,0.30
2023-05-12T22:45:17.999Z,0.40
2023-05-12T22:47:45.511Z,0.40
2023-05-12T22:50:14.300Z,0.47
2023-05-12T22:52:41.858Z,0.40
2023-05-12T22:55:09.667Z,0.40
2023-05-12T22:57:38.435Z,0.30
2023-05-12T23:00:06.975Z,0.40
2023-05-12T23:02:34.465Z,0.30
2023-05-12T23:05:02.478Z,0.30
2023-05-12T23:07:31.256Z,0.30
2023-05-12T23:09:58.740Z,0.30
2023-05-12T23:12:26.174Z,0.35
2023-05-12T23:14:53.778Z,0.30
2023-05-12T23:17:22.222Z,0.30
2023-05-12T23:19:49.684Z,0.40
2023-05-12T23:22:17.108Z,0.40
2023-05-12T23:24:45.937Z,0.35
2023-05-12T23:27:13.459Z,0.40
2023-05-12T23:29:40.886Z,0.30
2023-05-12T23:32:08.766Z,0.40
2023-05-12T23:34:40.104Z,0.40
2023-05-12T23:37:07.546Z,0.30
2023-05-12T23:39:34.987Z,0.30
2023-05-12T23:42:04.539Z,0.40
2023-05-12T23:44:32.018Z,0.40
2023-05-12T23:46:59.474Z,0.40
2023-05-12T23:49:27.393Z,0.30
2023-05-12T23:51:55.004Z,0.30
2023-05-12T23:54:22.404Z,0.32
2023-05-12T23:56:49.838Z,0.40
2023-05-12T23:59:18.625Z,0.38
